createdAt,value
2019-03-09T00:00:57.221Z,237
2019-03-09T00:05:57.179Z,230
2019-03-09T00:10:57.192Z,229
2019-03-09T00:15:57.199Z,231
2019-03-09T00:20:57.199Z,228
2019-03-09T00:25:57.177Z,229
2019-03-09T00:30:57.144Z,231
2019-03-09T00:33:34.124Z,230
2019-03-09T00:33:44.119Z,230
2019-03-09T00:35:57.149Z,230
2019-03-09T00:40:57.185Z,230
2019-03-09T00:45:57.122Z,230
2019-03-09T00:47:06.125Z,230
2019-03-09T00:47:12.084Z,230
2019-03-09T00:50:57.145Z,229
2019-03-09T00:52:12.140Z,229
2019-03-09T00:52:17.079Z,229
2019-03-09T00:55:57.116Z,231
2019-03-09T01:00:57.119Z,231
2019-03-09T01:01:22.077Z,231
2019-03-09T01:01:30.099Z,230
2019-03-09T01:05:57.149Z,232
2019-03-09T01:06:02.116Z,231
2019-03-09T01:06:12.062Z,231
2019-03-09T01:10:57.129Z,232
2019-03-09T01:15:57.142Z,232
2019-03-09T01:20:57.138Z,231
2019-03-09T01:25:57.101Z,233
2019-03-09T01:30:57.075Z,231
2019-03-09T01:35:57.096Z,231
2019-03-09T01:40:57.134Z,230
2019-03-09T01:43:22.027Z,230
2019-03-09T01:43:48.045Z,230
2019-03-09T01:45:57.071Z,231
2019-03-09T01:50:57.097Z,233
2019-03-09T01:55:57.083Z,232
2019-03-09T01:57:36.072Z,231
2019-03-09T01:57:54.038Z,232
2019-03-09T02:00:57.062Z,231
2019-03-09T02:05:57.087Z,230
2019-03-09T02:10:57.098Z,233
2019-03-09T02:15:23.031Z,233
2019-03-09T02:15:27.001Z,233
2019-03-09T02:15:57.094Z,233
2019-03-09T02:20:57.041Z,234
2019-03-09T02:25:57.110Z,234
2019-03-09T02:30:57.090Z,232
2019-03-09T02:31:31.060Z,233
2019-03-09T02:31:34.989Z,233
2019-03-09T02:32:10.997Z,232
2019-03-09T02:32:17.013Z,232
2019-03-09T02:35:57.039Z,231
2019-03-09T02:40:57.019Z,232
2019-03-09T02:45:57.042Z,232
2019-03-09T02:47:11.021Z,233
2019-03-09T02:47:18.967Z,233
2019-03-09T02:50:57.022Z,233
2019-03-09T02:55:52.990Z,233
2019-03-09T02:55:57.041Z,233
2019-03-09T02:55:59.004Z,233
2019-03-09T03:00:57.044Z,233
2019-03-09T03:05:57.046Z,233
2019-03-09T03:10:10.984Z,234
2019-03-09T03:10:17.008Z,233
2019-03-09T03:10:57.042Z,234
2019-03-09T03:11:42.970Z,234
2019-03-09T03:11:52.989Z,233
2019-03-09T03:15:57.014Z,233
2019-03-09T03:18:38.943Z,234
2019-03-09T03:18:42.949Z,234
2019-03-09T03:20:34.962Z,235
2019-03-09T03:20:38.972Z,235
2019-03-09T03:20:57.025Z,235
2019-03-09T03:25:57.006Z,233
2019-03-09T03:26:32.963Z,233
2019-03-09T03:26:38.973Z,233
2019-03-09T03:30:57.005Z,234
2019-03-09T03:35:56.995Z,230
2019-03-09T03:40:56.997Z,228
2019-03-09T03:42:30.971Z,231
2019-03-09T03:42:54.920Z,231
2019-03-09T03:44:46.921Z,229
2019-03-09T03:44:50.927Z,229
2019-03-09T03:45:56.961Z,230
2019-03-09T03:50:56.996Z,230
2019-03-09T03:52:20.962Z,232
2019-03-09T03:52:54.935Z,230
2019-03-09T03:55:56.952Z,228
2019-03-09T03:56:56.928Z,229
2019-03-09T03:57:00.933Z,229
2019-03-09T03:57:59.002Z,230
2019-03-09T03:58:10.921Z,230
2019-03-09T03:59:54.964Z,229
2019-03-09T03:59:58.908Z,229
2019-03-09T04:00:56.945Z,229
2019-03-09T04:05:56.978Z,230
2019-03-09T04:09:50.912Z,229
2019-03-09T04:09:54.930Z,229
2019-03-09T04:10:56.941Z,229
2019-03-09T04:14:28.900Z,231
2019-03-09T04:14:46.901Z,231
2019-03-09T04:15:56.973Z,230
2019-03-09T04:20:57.000Z,227
2019-03-09T04:25:56.945Z,229
2019-03-09T04:30:56.917Z,229
2019-03-09T04:35:56.927Z,230
2019-03-09T04:40:56.979Z,229
2019-03-09T04:45:56.931Z,226
2019-03-09T04:50:56.964Z,227
2019-03-09T04:55:56.917Z,227
2019-03-09T05:00:56.927Z,227
2019-03-09T05:05:56.936Z,229
2019-03-09T05:10:56.902Z,229
2019-03-09T05:15:56.972Z,229
2019-03-09T05:20:56.939Z,230
2019-03-09T05:24:31.844Z,226
2019-03-09T05:24:41.866Z,227
2019-03-09T05:25:56.903Z,226
2019-03-09T05:30:56.904Z,227
2019-03-09T05:32:09.866Z,225
2019-03-09T05:32:27.853Z,225
2019-03-09T05:35:56.887Z,226
2019-03-09T05:40:56.856Z,229
2019-03-09T05:45:56.879Z,228
2019-03-09T05:50:56.862Z,230
2019-03-09T05:55:56.877Z,231
2019-03-09T05:57:45.818Z,232
2019-03-09T05:58:13.806Z,231
2019-03-09T06:00:56.852Z,229
2019-03-09T06:05:56.854Z,229
2019-03-09T06:10:56.855Z,228
2019-03-09T06:12:13.822Z,223
2019-03-09T06:13:01.795Z,225
2019-03-09T06:15:56.846Z,227
2019-03-09T06:20:56.847Z,222
2019-03-09T06:25:56.842Z,224
2019-03-09T06:30:56.857Z,224
2019-03-09T06:35:56.881Z,224
2019-03-09T06:41:02.819Z,225
2019-03-09T06:45:56.914Z,225
2019-03-09T06:50:56.856Z,222
2019-03-09T06:55:56.793Z,223
2019-03-09T07:00:56.787Z,220
2019-03-09T07:05:56.849Z,223
2019-03-09T07:10:56.800Z,222
2019-03-09T07:15:56.788Z,222
2019-03-09T07:20:56.804Z,221
2019-03-09T07:25:56.778Z,221
2019-03-09T07:30:56.787Z,224
2019-03-09T07:35:56.763Z,222
2019-03-09T07:40:56.807Z,224
2019-03-09T07:45:56.770Z,228
2019-03-09T07:50:56.792Z,222
2019-03-09T07:55:56.786Z,227
2019-03-09T08:00:56.761Z,228
2019-03-09T08:05:56.767Z,227
2019-03-09T08:10:56.768Z,227
2019-03-09T08:15:56.745Z,227
2019-03-09T08:20:56.724Z,227
2019-03-09T08:25:56.751Z,227
2019-03-09T08:30:56.747Z,229
2019-03-09T08:35:56.760Z,222
2019-03-09T08:40:56.725Z,224
2019-03-09T08:45:56.755Z,222
2019-03-09T08:50:56.710Z,222
2019-03-09T08:55:56.701Z,221
2019-03-09T09:00:56.725Z,225
2019-03-09T09:05:56.675Z,225
2019-03-09T09:10:56.720Z,229
2019-03-09T09:11:30.645Z,227
2019-03-09T09:11:36.654Z,228
2019-03-09T09:15:56.658Z,229
2019-03-09T09:17:32.638Z,227
2019-03-09T09:17:44.641Z,228
2019-03-09T09:20:56.665Z,226
2019-03-09T09:22:36.673Z,226
2019-03-09T09:22:40.615Z,225
2019-03-09T09:25:56.677Z,225
2019-03-09T09:30:56.721Z,221
2019-03-09T09:35:56.685Z,217
2019-03-09T09:40:56.634Z,218
2019-03-09T09:45:56.656Z,221
2019-03-09T09:50:56.626Z,222
2019-03-09T09:55:56.647Z,219
2019-03-09T10:00:56.641Z,217
2019-03-09T10:05:56.645Z,220
2019-03-09T10:10:56.648Z,219
2019-03-09T10:15:56.668Z,221
2019-03-09T10:20:56.621Z,219
2019-03-09T10:25:56.619Z,215
2019-03-09T10:30:56.656Z,216
2019-03-09T10:35:56.617Z,219
2019-03-09T10:40:56.611Z,218
2019-03-09T10:45:56.585Z,221
2019-03-09T10:50:56.608Z,218
2019-03-09T10:55:56.597Z,225
2019-03-09T11:00:56.611Z,222
2019-03-09T11:05:56.571Z,223
2019-03-09T11:10:56.558Z,223
2019-03-09T11:15:56.596Z,219
2019-03-09T11:20:56.584Z,224
2019-03-09T11:25:56.552Z,217
2019-03-09T11:30:56.575Z,222
2019-03-09T11:35:56.533Z,225
2019-03-09T11:40:58.713Z,225
2019-03-09T11:45:56.555Z,225
2019-03-09T11:50:56.564Z,224
2019-03-09T11:55:56.539Z,223
2019-03-09T12:00:56.543Z,225
2019-03-09T12:05:56.501Z,225
2019-03-09T12:10:56.502Z,226
2019-03-09T12:15:56.560Z,225
2019-03-09T12:18:50.490Z,226
2019-03-09T12:18:54.448Z,227
2019-03-09T12:20:56.526Z,224
2019-03-09T12:25:56.547Z,223
2019-03-09T12:30:56.532Z,224
2019-03-09T12:35:56.516Z,225
2019-03-09T12:40:56.472Z,225
2019-03-09T12:45:56.514Z,222
2019-03-09T12:50:56.484Z,225
2019-03-09T12:55:56.462Z,225
2019-03-09T13:00:56.492Z,226
2019-03-09T13:05:56.509Z,228
2019-03-09T13:10:56.476Z,229
2019-03-09T13:15:56.470Z,225
2019-03-09T13:20:56.436Z,222
2019-03-09T13:25:56.456Z,222
2019-03-09T13:30:56.483Z,225
2019-03-09T13:35:56.453Z,228
2019-03-09T13:40:56.431Z,223
2019-03-09T13:45:56.469Z,227
2019-03-09T13:50:56.458Z,222
2019-03-09T13:55:56.441Z,225
2019-03-09T14:00:56.428Z,224
2019-03-09T14:05:56.424Z,225
2019-03-09T14:10:56.423Z,224
2019-03-09T14:15:58.786Z,227
2019-03-09T14:20:56.389Z,228
2019-03-09T14:21:06.351Z,228
2019-03-09T14:21:10.366Z,227
2019-03-09T14:25:56.405Z,225
2019-03-09T14:30:56.369Z,227
2019-03-09T14:35:56.428Z,228
2019-03-09T14:40:56.388Z,229
2019-03-09T14:45:56.375Z,224
2019-03-09T14:50:56.393Z,227
2019-03-09T14:55:56.340Z,224
2019-03-09T15:00:56.338Z,223
2019-03-09T15:05:56.360Z,224
2019-03-09T15:10:56.325Z,225
2019-03-09T15:15:56.377Z,224
2019-03-09T15:20:56.368Z,224
2019-03-09T15:25:56.306Z,223
2019-03-09T15:30:56.349Z,227
2019-03-09T15:35:56.333Z,224
2019-03-09T15:40:56.428Z,224
2019-03-09T15:45:56.299Z,222
2019-03-09T15:50:56.354Z,224
2019-03-09T15:55:56.296Z,226
2019-03-09T16:00:56.322Z,225
2019-03-09T16:05:56.330Z,221
2019-03-09T16:10:56.292Z,225
2019-03-09T16:15:56.283Z,224
2019-03-09T16:20:56.268Z,223
2019-03-09T16:25:56.276Z,225
2019-03-09T16:30:56.290Z,224
2019-03-09T16:35:56.279Z,219
2019-03-09T16:40:56.286Z,221
2019-03-09T16:45:56.267Z,222
2019-03-09T16:50:56.267Z,221
2019-03-09T16:55:56.278Z,224
2019-03-09T17:00:56.229Z,225
2019-03-09T17:05:56.244Z,222
2019-03-09T17:10:56.339Z,218
2019-03-09T17:15:56.265Z,220
2019-03-09T17:20:56.856Z,220
2019-03-09T17:26:16.734Z,221
2019-03-09T17:31:16.958Z,224
2019-03-09T17:36:16.944Z,220
2019-03-09T17:41:16.975Z,222
2019-03-09T17:46:16.929Z,222
2019-03-09T17:51:16.951Z,217
2019-03-09T17:56:16.905Z,220
2019-03-09T18:01:16.961Z,221
2019-03-09T18:06:16.942Z,222
2019-03-09T18:11:16.892Z,224
2019-03-09T18:16:16.917Z,221
2019-03-09T18:21:16.908Z,222
2019-03-09T18:26:16.876Z,222
2019-03-09T18:31:16.868Z,224
2019-03-09T18:36:16.927Z,224
2019-03-09T18:41:16.928Z,222
2019-03-09T18:46:16.865Z,220
2019-03-09T18:51:16.935Z,224
2019-03-09T18:56:16.879Z,218
2019-03-09T19:01:16.870Z,222
2019-03-09T19:06:16.890Z,220
2019-03-09T19:11:16.838Z,220
2019-03-09T19:16:16.833Z,222
2019-03-09T19:21:16.865Z,226
2019-03-09T19:26:16.862Z,227
2019-03-09T19:31:16.844Z,226
2019-03-09T19:36:16.825Z,222
2019-03-09T19:41:16.818Z,225
2019-03-09T19:46:16.825Z,225
2019-03-09T19:51:16.848Z,226
2019-03-09T19:56:16.816Z,224
2019-03-09T20:01:16.812Z,225
2019-03-09T20:06:16.837Z,228
2019-03-09T20:11:16.784Z,223
2019-03-09T20:16:16.789Z,226
2019-03-09T20:21:16.799Z,226
2019-03-09T20:26:16.840Z,228
2019-03-09T20:31:16.767Z,227
2019-03-09T20:36:16.792Z,226
2019-03-09T20:41:16.779Z,225
2019-03-09T20:46:16.753Z,225
2019-03-09T20:51:16.752Z,226
2019-03-09T20:56:16.769Z,225
2019-03-09T21:01:16.792Z,227
2019-03-09T21:06:16.769Z,227
2019-03-09T21:11:16.743Z,227
2019-03-09T21:16:16.792Z,227
2019-03-09T21:21:16.715Z,226
2019-03-09T21:26:16.723Z,227
2019-03-09T21:31:16.737Z,229
2019-03-09T21:36:16.717Z,228
2019-03-09T21:36:26.718Z,228
2019-03-09T21:36:34.668Z,226
2019-03-09T21:41:16.730Z,225
2019-03-09T21:46:16.713Z,226
2019-03-09T21:51:16.745Z,226
2019-03-09T21:56:16.726Z,230
2019-03-09T22:01:16.684Z,228
2019-03-09T22:06:16.707Z,229
2019-03-09T22:11:16.671Z,228
2019-03-09T22:16:16.669Z,229
2019-03-09T22:21:16.700Z,229
2019-03-09T22:26:16.982Z,232
2019-03-09T22:31:16.697Z,232
2019-03-09T22:32:58.627Z,233
2019-03-09T22:33:00.631Z,233
2019-03-09T22:36:16.976Z,230
2019-03-09T22:41:16.650Z,227
2019-03-09T22:46:16.651Z,227
2019-03-09T22:51:16.662Z,226
2019-03-09T22:56:16.660Z,225
2019-03-09T23:01:16.682Z,229
2019-03-09T23:06:16.673Z,228
2019-03-09T23:11:16.639Z,227
2019-03-09T23:16:16.701Z,228
2019-03-09T23:21:16.664Z,229
2019-03-09T23:26:16.604Z,230
2019-03-09T23:31:16.648Z,230
2019-03-09T23:36:16.658Z,228
2019-03-09T23:41:16.614Z,230
2019-03-09T23:46:16.628Z,229
2019-03-09T23:51:09.580Z,230
2019-03-09T23:51:13.562Z,230
2019-03-09T23:51:16.618Z,230
2019-03-09T23:56:16.603Z,228
2019-03-09T23:57:53.547Z,227
2019-03-09T23:57:57.555Z,227
